Terminal Aerodrome Forecast
Issued by NWS Cleveland, OH

Home | Current Version | Previous Version | Graphics & Text | Print | Product List | Glossary On
Versions: 1 2 3 4 5 6 7 8 9 10 11 12 13 14 15 16
000
FTUS41 KCLE 051720
TAFYNG
TAF
KYNG 051720Z 0518/0618 24008KT P6SM OVC020
     FM052200 24008KT P6SM SCT020 BKN045
      TEMPO 0522/0524 BKN022
     FM060000 VRB03KT P6SM SCT050 BKN150
     FM060900 09008KT P6SM SCT035 OVC050
      TEMPO 0612/0616 OVC035
     FM061600 10012KT 6SM -RA BR OVC035=

USA.gov is the U.S. government's official web portal to all federal, state and local government web resources and services.